sensor_id;sensor_type;location;lat;lon;timestamp;pressure;altitude;pressure_sealevel;temperature;humidity
62617;BME280;62539;51.190;6.808;2023-06-14T00:01:41;101031.56;;;28.14;38.13
62617;BME280;62539;51.190;6.808;2023-06-14T00:04:06;101037.88;;;28.13;38.12
62617;BME280;62539;51.190;6.808;2023-06-14T00:06:33;101034.41;;;28.11;38.09
62617;BME280;62539;51.190;6.808;2023-06-14T00:08:59;101042.41;;;28.11;38.17
62617;BME280;62539;51.190;6.808;2023-06-14T00:11:25;101036.34;;;28.09;38.22
62617;BME280;62539;51.190;6.808;2023-06-14T00:13:52;101044.34;;;28.09;38.04
62617;BME280;62539;51.190;6.808;2023-06-14T00:16:17;101047.97;;;28.08;38.35
62617;BME280;62539;51.190;6.808;2023-06-14T00:18:44;101060.56;;;28.06;38.15
62617;BME280;62539;51.190;6.808;2023-06-14T00:21:11;101057.91;;;28.06;38.27
62617;BME280;62539;51.190;6.808;2023-06-14T00:23:37;101046.47;;;28.04;38.56
62617;BME280;62539;51.190;6.808;2023-06-14T00:26:03;101061.53;;;28.05;38.40
62617;BME280;62539;51.190;6.808;2023-06-14T00:28:28;101063.44;;;28.03;38.20
62617;BME280;62539;51.190;6.808;2023-06-14T00:30:53;101067.91;;;28.02;38.41
62617;BME280;62539;51.190;6.808;2023-06-14T00:33:19;101062.69;;;28.01;38.54
62617;BME280;62539;51.190;6.808;2023-06-14T00:35:45;101059.16;;;28.00;38.27
62617;BME280;62539;51.190;6.808;2023-06-14T00:38:10;101063.66;;;28.00;38.50
62617;BME280;62539;51.190;6.808;2023-06-14T00:40:35;101061.97;;;27.99;38.41
62617;BME280;62539;51.190;6.808;2023-06-14T00:43:01;101064.72;;;27.97;38.51
62617;BME280;62539;51.190;6.808;2023-06-14T00:45:26;101068.34;;;27.96;38.49
62617;BME280;62539;51.190;6.808;2023-06-14T00:47:52;101064.84;;;27.96;38.57
62617;BME280;62539;51.190;6.808;2023-06-14T00:50:20;101067.50;;;27.96;38.77
62617;BME280;62539;51.190;6.808;2023-06-14T00:52:47;101059.59;;;27.94;38.52
62617;BME280;62539;51.190;6.808;2023-06-14T00:55:12;101057.91;;;27.93;38.58
62617;BME280;62539;51.190;6.808;2023-06-14T00:57:38;101059.72;;;27.93;38.64
62617;BME280;62539;51.190;6.808;2023-06-14T01:00:05;101060.69;;;27.92;38.49
62617;BME280;62539;51.190;6.808;2023-06-14T01:02:37;101064.31;;;27.91;38.60
62617;BME280;62539;51.190;6.808;2023-06-14T01:05:03;101067.94;;;27.90;38.77
62617;BME280;62539;51.190;6.808;2023-06-14T01:10:43;101072.63;;;27.86;38.69
62617;BME280;62539;51.190;6.808;2023-06-14T01:13:36;101069.09;;;27.85;38.66
62617;BME280;62539;51.190;6.808;2023-06-14T01:16:06;101071.88;;;27.84;38.74
62617;BME280;62539;51.190;6.808;2023-06-14T01:18:33;101077.19;;;27.84;38.76
62617;BME280;62539;51.190;6.808;2023-06-14T01:21:00;101073.69;;;27.83;38.73
62617;BME280;62539;51.190;6.808;2023-06-14T01:23:30;101072.00;;;27.82;38.74
62617;BME280;62539;51.190;6.808;2023-06-14T01:25:58;101079.13;;;27.82;38.84
62617;BME280;62539;51.190;6.808;2023-06-14T01:28:26;101086.28;;;27.81;38.70
62617;BME280;62539;51.190;6.808;2023-06-14T01:30:59;101073.91;;;27.80;38.69
62617;BME280;62539;51.190;6.808;2023-06-14T01:33:29;101075.72;;;27.80;38.92
62617;BME280;62539;51.190;6.808;2023-06-14T01:35:56;101074.00;;;27.79;38.95
62617;BME280;62539;51.190;6.808;2023-06-14T01:38:25;101075.84;;;27.78;38.67
62617;BME280;62539;51.190;6.808;2023-06-14T01:40:54;101075.84;;;27.78;38.83
62617;BME280;62539;51.190;6.808;2023-06-14T01:43:22;101071.47;;;27.77;38.82
62617;BME280;62539;51.190;6.808;2023-06-14T01:45:50;101076.03;;;27.75;38.92
62617;BME280;62539;51.190;6.808;2023-06-14T01:48:19;101078.72;;;27.75;38.68
62617;BME280;62539;51.190;6.808;2023-06-14T01:50:45;101079.66;;;27.74;38.95
62617;BME280;62539;51.190;6.808;2023-06-14T01:53:10;101081.47;;;27.73;38.84
62617;BME280;62539;51.190;6.808;2023-06-14T01:55:36;101083.28;;;27.73;39.01
62617;BME280;62539;51.190;6.808;2023-06-14T01:58:04;101082.41;;;27.72;38.81
62617;BME280;62539;51.190;6.808;2023-06-14T02:00:29;101071.88;;;27.71;39.17
62617;BME280;62539;51.190;6.808;2023-06-14T02:02:55;101074.56;;;27.71;39.07
62617;BME280;62539;51.190;6.808;2023-06-14T02:05:21;101079.00;;;27.70;38.94
62617;BME280;62539;51.190;6.808;2023-06-14T02:07:46;101071.97;;;27.69;38.84
62617;BME280;62539;51.190;6.808;2023-06-14T02:10:13;101065.81;;;27.69;38.90
62617;BME280;62539;51.190;6.808;2023-06-14T02:12:39;101071.13;;;27.69;38.01
62617;BME280;62539;51.190;6.808;2023-06-14T02:15:05;101071.34;;;27.66;37.62
62617;BME280;62539;51.190;6.808;2023-06-14T02:17:32;101071.56;;;27.63;37.47
62617;BME280;62539;51.190;6.808;2023-06-14T02:19:58;101071.78;;;27.60;37.45
62617;BME280;62539;51.190;6.808;2023-06-14T02:22:24;101073.69;;;27.57;37.42
62617;BME280;62539;51.190;6.808;2023-06-14T02:24:50;101070.28;;;27.55;37.14
62617;BME280;62539;51.190;6.808;2023-06-14T02:27:15;101081.97;;;27.53;37.16
62617;BME280;62539;51.190;6.808;2023-06-14T02:29:41;101081.13;;;27.52;37.41
62617;BME280;62539;51.190;6.808;2023-06-14T02:32:07;101082.28;;;27.48;37.17
62617;BME280;62539;51.190;6.808;2023-06-14T02:34:33;101080.56;;;27.47;37.05
62617;BME280;62539;51.190;6.808;2023-06-14T02:37:00;101081.53;;;27.46;37.32
62617;BME280;62539;51.190;6.808;2023-06-14T02:39:28;101080.78;;;27.44;37.33
62617;BME280;62539;51.190;6.808;2023-06-14T02:41:53;101083.66;;;27.41;37.31
62617;BME280;62539;51.190;6.808;2023-06-14T02:44:19;101081.06;;;27.39;37.31
62617;BME280;62539;51.190;6.808;2023-06-14T02:46:45;101079.38;;;27.38;37.19
62617;BME280;62539;51.190;6.808;2023-06-14T02:49:11;101084.81;;;27.37;37.45
62617;BME280;62539;51.190;6.808;2023-06-14T02:51:36;101080.44;;;27.36;37.33
62617;BME280;62539;51.190;6.808;2023-06-14T02:54:02;101082.34;;;27.34;37.61
62617;BME280;62539;51.190;6.808;2023-06-14T02:56:29;101091.31;;;27.33;37.52
62617;BME280;62539;51.190;6.808;2023-06-14T02:58:54;101099.38;;;27.31;37.46
62617;BME280;62539;51.190;6.808;2023-06-14T03:01:20;101095.00;;;27.30;37.68
62617;BME280;62539;51.190;6.808;2023-06-14T03:03:46;101107.56;;;27.28;37.68
62617;BME280;62539;51.190;6.808;2023-06-14T03:06:12;101118.34;;;27.26;37.80
62617;BME280;62539;51.190;6.808;2023-06-14T03:08:40;101111.31;;;27.25;37.50
62617;BME280;62539;51.190;6.808;2023-06-14T03:11:07;101118.56;;;27.23;37.72
62617;BME280;62539;51.190;6.808;2023-06-14T03:13:33;101120.47;;;27.21;37.70
62617;BME280;62539;51.190;6.808;2023-06-14T03:15:59;101124.09;;;27.20;37.91
62617;BME280;62539;51.190;6.808;2023-06-14T03:18:28;101131.31;;;27.18;37.75
62617;BME280;62539;51.190;6.808;2023-06-14T03:21:01;101127.91;;;27.16;37.87
62617;BME280;62539;51.190;6.808;2023-06-14T03:23:26;101128.84;;;27.15;37.80
62617;BME280;62539;51.190;6.808;2023-06-14T03:25:52;101130.66;;;27.14;37.95
62617;BME280;62539;51.190;6.808;2023-06-14T03:28:18;101131.72;;;27.12;37.94
62617;BME280;62539;51.190;6.808;2023-06-14T03:30:43;101133.63;;;27.10;37.92
62617;BME280;62539;51.190;6.808;2023-06-14T03:33:08;101131.94;;;27.09;37.66
62617;BME280;62539;51.190;6.808;2023-06-14T03:35:34;101137.25;;;27.09;37.98
62617;BME280;62539;51.190;6.808;2023-06-14T03:38:00;101139.16;;;27.07;38.00
62617;BME280;62539;51.190;6.808;2023-06-14T03:40:25;101141.06;;;27.05;38.06
62617;BME280;62539;51.190;6.808;2023-06-14T03:42:53;101139.34;;;27.04;38.06
62617;BME280;62539;51.190;6.808;2023-06-14T03:45:18;101135.00;;;27.03;38.25
62617;BME280;62539;51.190;6.808;2023-06-14T03:47:44;101149.25;;;27.02;37.97
62617;BME280;62539;51.190;6.808;2023-06-14T03:50:10;101144.00;;;27.00;38.15
62617;BME280;62539;51.190;6.808;2023-06-14T03:52:36;101153.81;;;26.99;38.20
62617;BME280;62539;51.190;6.808;2023-06-14T03:55:02;101150.41;;;26.97;38.15
62617;BME280;62539;51.190;6.808;2023-06-14T03:57:29;101148.69;;;26.96;38.29
62617;BME280;62539;51.190;6.808;2023-06-14T03:59:55;101155.94;;;26.94;38.43
62617;BME280;62539;51.190;6.808;2023-06-14T04:02:20;101148.91;;;26.93;38.14
62617;BME280;62539;51.190;6.808;2023-06-14T04:04:46;101154.31;;;26.92;38.35
62617;BME280;62539;51.190;6.808;2023-06-14T04:07:15;101157.06;;;26.90;38.59
62617;BME280;62539;51.190;6.808;2023-06-14T04:09:44;101158.97;;;26.88;38.73
62617;BME280;62539;51.190;6.808;2023-06-14T04:12:10;101158.22;;;26.86;38.69
62617;BME280;62539;51.190;6.808;2023-06-14T04:14:41;101162.59;;;26.87;38.80
62617;BME280;62539;51.190;6.808;2023-06-14T04:17:06;101160.88;;;26.86;38.69
62617;BME280;62539;51.190;6.808;2023-06-14T04:19:32;101164.50;;;26.85;38.50
62617;BME280;62539;51.190;6.808;2023-06-14T04:21:58;101164.59;;;26.83;38.55
62617;BME280;62539;51.190;6.808;2023-06-14T04:24:26;101174.41;;;26.83;38.70
62617;BME280;62539;51.190;6.808;2023-06-14T04:26:57;101179.75;;;26.81;38.70
62617;BME280;62539;51.190;6.808;2023-06-14T04:29:24;101179.00;;;26.79;38.80
62617;BME280;62539;51.190;6.808;2023-06-14T04:31:53;101180.84;;;26.79;38.60
62617;BME280;62539;51.190;6.808;2023-06-14T04:34:20;101179.97;;;26.78;38.45
62617;BME280;62539;51.190;6.808;2023-06-14T04:36:47;101192.44;;;26.78;38.72
62617;BME280;62539;51.190;6.808;2023-06-14T04:39:18;101181.97;;;26.75;37.99
62617;BME280;62539;51.190;6.808;2023-06-14T04:41:46;101188.25;;;26.74;38.03
62617;BME280;62539;51.190;6.808;2023-06-14T04:44:12;101193.66;;;26.72;37.48
62617;BME280;62539;51.190;6.808;2023-06-14T04:46:39;101200.88;;;26.70;37.02
62617;BME280;62539;51.190;6.808;2023-06-14T04:49:17;101189.59;;;26.66;36.52
62617;BME280;62539;51.190;6.808;2023-06-14T04:51:44;101199.56;;;26.63;36.12
62617;BME280;62539;51.190;6.808;2023-06-14T04:54:11;101208.59;;;26.60;35.57
62617;BME280;62539;51.190;6.808;2023-06-14T04:56:40;101204.41;;;26.56;35.28
62617;BME280;62539;51.190;6.808;2023-06-14T04:59:07;101202.91;;;26.52;35.14
62617;BME280;62539;51.190;6.808;2023-06-14T05:01:34;101212.03;;;26.48;34.91
62617;BME280;62539;51.190;6.808;2023-06-14T05:04:00;101208.59;;;26.46;34.44
62617;BME280;62539;51.190;6.808;2023-06-14T05:06:26;101210.50;;;26.44;34.39
62617;BME280;62539;51.190;6.808;2023-06-14T05:08:52;101219.53;;;26.41;34.27
62617;BME280;62539;51.190;6.808;2023-06-14T05:11:18;101212.59;;;26.38;34.02
62617;BME280;62539;51.190;6.808;2023-06-14T05:13:43;101213.53;;;26.37;34.35
62617;BME280;62539;51.190;6.808;2023-06-14T05:16:10;101215.44;;;26.35;34.15
62617;BME280;62539;51.190;6.808;2023-06-14T05:18:36;101216.38;;;26.34;34.38
62617;BME280;62539;51.190;6.808;2023-06-14T05:21:03;101216.38;;;26.34;34.41
62617;BME280;62539;51.190;6.808;2023-06-14T05:23:30;101223.41;;;26.35;34.43
62617;BME280;62539;51.190;6.808;2023-06-14T05:25:56;101215.53;;;26.34;34.35
62617;BME280;62539;51.190;6.808;2023-06-14T05:28:22;101220.00;;;26.33;34.23
62617;BME280;62539;51.190;6.808;2023-06-14T05:30:47;101213.81;;;26.33;34.45
62617;BME280;62539;51.190;6.808;2023-06-14T05:33:13;101217.31;;;26.33;34.52
62617;BME280;62539;51.190;6.808;2023-06-14T05:35:38;101214.78;;;26.32;34.43
62617;BME280;62539;51.190;6.808;2023-06-14T05:38:04;101213.06;;;26.31;34.50
62617;BME280;62539;51.190;6.808;2023-06-14T05:40:29;101215.81;;;26.29;34.88
62617;BME280;62539;51.190;6.808;2023-06-14T05:42:55;101216.56;;;26.31;34.93
62617;BME280;62539;51.190;6.808;2023-06-14T05:45:20;101226.44;;;26.29;34.64
62617;BME280;62539;51.190;6.808;2023-06-14T05:47:45;101222.94;;;26.29;34.98
62617;BME280;62539;51.190;6.808;2023-06-14T05:50:11;101226.44;;;26.29;34.73
62617;BME280;62539;51.190;6.808;2023-06-14T05:52:36;101230.91;;;26.29;34.40
62617;BME280;62539;51.190;6.808;2023-06-14T05:55:03;101232.72;;;26.28;34.71
62617;BME280;62539;51.190;6.808;2023-06-14T05:57:30;101238.03;;;26.28;34.77
62617;BME280;62539;51.190;6.808;2023-06-14T05:59:55;101240.78;;;26.26;34.54
62617;BME280;62539;51.190;6.808;2023-06-14T06:02:21;101239.91;;;26.26;34.50
62617;BME280;62539;51.190;6.808;2023-06-14T06:04:46;101242.59;;;26.26;34.55
62617;BME280;62539;51.190;6.808;2023-06-14T06:07:12;101238.22;;;26.25;34.42
62617;BME280;62539;51.190;6.808;2023-06-14T06:09:37;101238.22;;;26.25;34.74
62617;BME280;62539;51.190;6.808;2023-06-14T06:12:05;101243.53;;;26.25;34.42
62617;BME280;62539;51.190;6.808;2023-06-14T06:14:32;101250.66;;;26.24;34.60
62617;BME280;62539;51.190;6.808;2023-06-14T06:16:57;101248.97;;;26.23;34.68
62617;BME280;62539;51.190;6.808;2023-06-14T06:19:23;101247.13;;;26.24;34.32
62617;BME280;62539;51.190;6.808;2023-06-14T06:21:48;101249.81;;;26.24;34.47
62617;BME280;62539;51.190;6.808;2023-06-14T06:24:14;101248.84;;;26.25;34.56
62617;BME280;62539;51.190;6.808;2023-06-14T06:26:39;101249.81;;;26.24;34.72
62617;BME280;62539;51.190;6.808;2023-06-14T06:29:05;101244.47;;;26.24;34.70
62617;BME280;62539;51.190;6.808;2023-06-14T06:31:31;101243.53;;;26.25;34.46
62617;BME280;62539;51.190;6.808;2023-06-14T06:33:56;101253.31;;;26.24;34.78
62617;BME280;62539;51.190;6.808;2023-06-14T06:36:22;101248.00;;;26.24;34.72
62617;BME280;62539;51.190;6.808;2023-06-14T06:38:48;101248.84;;;26.25;34.54
62617;BME280;62539;51.190;6.808;2023-06-14T06:41:13;101259.50;;;26.25;34.65
62617;BME280;62539;51.190;6.808;2023-06-14T06:43:39;101255.03;;;26.25;34.79
62617;BME280;62539;51.190;6.808;2023-06-14T06:46:04;101258.53;;;26.26;34.65
62617;BME280;62539;51.190;6.808;2023-06-14T06:48:30;101257.69;;;26.25;34.94
62617;BME280;62539;51.190;6.808;2023-06-14T06:50:55;101268.22;;;26.27;34.58
62617;BME280;62539;51.190;6.808;2023-06-14T06:53:21;101266.53;;;26.26;34.53
62617;BME280;62539;51.190;6.808;2023-06-14T06:55:46;101265.56;;;26.27;34.34
62617;BME280;62539;51.190;6.808;2023-06-14T06:58:12;101270.88;;;26.27;34.44
62617;BME280;62539;51.190;6.808;2023-06-14T07:00:39;101269.94;;;26.28;34.25
62617;BME280;62539;51.190;6.808;2023-06-14T07:03:06;101269.94;;;26.28;34.29
62617;BME280;62539;51.190;6.808;2023-06-14T07:05:31;101269.94;;;26.28;34.43
62617;BME280;62539;51.190;6.808;2023-06-14T07:07:57;101279.63;;;26.29;34.30
62617;BME280;62539;51.190;6.808;2023-06-14T07:10:23;101271.66;;;26.29;34.36
62617;BME280;62539;51.190;6.808;2023-06-14T07:12:49;101278.69;;;26.30;34.52
62617;BME280;62539;51.190;6.808;2023-06-14T07:15:15;101286.59;;;26.32;34.29
62617;BME280;62539;51.190;6.808;2023-06-14T07:17:41;101283.94;;;26.32;34.58
62617;BME280;62539;51.190;6.808;2023-06-14T07:20:08;101289.13;;;26.33;34.70
62617;BME280;62539;51.190;6.808;2023-06-14T07:22:37;101279.44;;;26.32;34.80
62617;BME280;62539;51.190;6.808;2023-06-14T07:25:10;101284.00;;;26.30;34.73
62617;BME280;62539;51.190;6.808;2023-06-14T07:27:39;101283.06;;;26.31;34.73
62617;BME280;62539;51.190;6.808;2023-06-14T07:30:09;101287.53;;;26.31;35.10
62617;BME280;62539;51.190;6.808;2023-06-14T07:32:36;101288.31;;;26.33;35.13
62617;BME280;62539;51.190;6.808;2023-06-14T07:35:01;101285.53;;;26.34;35.09
62617;BME280;62539;51.190;6.808;2023-06-14T07:37:28;101281.94;;;26.35;35.19
62617;BME280;62539;51.190;6.808;2023-06-14T07:39:53;101278.31;;;26.36;35.05
62617;BME280;62539;51.190;6.808;2023-06-14T07:42:19;101284.50;;;26.37;35.34
62617;BME280;62539;51.190;6.808;2023-06-14T07:44:44;101282.63;;;26.39;35.40
62617;BME280;62539;51.190;6.808;2023-06-14T07:47:10;101285.16;;;26.40;35.65
62617;BME280;62539;51.190;6.808;2023-06-14T07:49:35;101278.06;;;26.41;35.48
62617;BME280;62539;51.190;6.808;2023-06-14T07:52:01;101282.44;;;26.42;35.58
62617;BME280;62539;51.190;6.808;2023-06-14T07:54:26;101267.31;;;26.42;35.65
62617;BME280;62539;51.190;6.808;2023-06-14T07:56:52;101284.03;;;26.45;35.53
62617;BME280;62539;51.190;6.808;2023-06-14T07:59:18;101294.59;;;26.46;35.60
62617;BME280;62539;51.190;6.808;2023-06-14T08:01:43;101295.44;;;26.47;35.47
62617;BME280;62539;51.190;6.808;2023-06-14T08:04:15;101286.50;;;26.48;35.86
62617;BME280;62539;51.190;6.808;2023-06-14T08:06:41;101293.53;;;26.49;35.83
62617;BME280;62539;51.190;6.808;2023-06-14T08:09:10;101293.53;;;26.49;35.58
62617;BME280;62539;51.190;6.808;2023-06-14T08:11:36;101287.28;;;26.50;36.06
62617;BME280;62539;51.190;6.808;2023-06-14T08:14:02;101292.47;;;26.51;35.91
62617;BME280;62539;51.190;6.808;2023-06-14T08:16:27;101291.53;;;26.52;36.07
62617;BME280;62539;51.190;6.808;2023-06-14T08:18:53;101291.47;;;26.54;35.89
62617;BME280;62539;51.190;6.808;2023-06-14T08:21:20;101286.13;;;26.54;35.74
62617;BME280;62539;51.190;6.808;2023-06-14T08:23:45;101289.63;;;26.54;36.15
62617;BME280;62539;51.190;6.808;2023-06-14T08:26:11;101286.91;;;26.56;35.92
62617;BME280;62539;51.190;6.808;2023-06-14T08:28:36;101293.06;;;26.56;35.86
62617;BME280;62539;51.190;6.808;2023-06-14T08:31:02;101293.94;;;26.57;36.25
62617;BME280;62539;51.190;6.808;2023-06-14T08:33:27;101294.69;;;26.59;36.01
62617;BME280;62539;51.190;6.808;2023-06-14T08:35:53;101292.88;;;26.60;36.25
62617;BME280;62539;51.190;6.808;2023-06-14T08:38:18;101293.75;;;26.60;36.12
62617;BME280;62539;51.190;6.808;2023-06-14T08:40:45;101293.63;;;26.62;35.90
62617;BME280;62539;51.190;6.808;2023-06-14T08:43:15;101290.97;;;26.62;36.06
62617;BME280;62539;51.190;6.808;2023-06-14T08:45:41;101290.91;;;26.63;36.25
62617;BME280;62539;51.190;6.808;2023-06-14T08:48:07;101298.78;;;26.65;36.39
62617;BME280;62539;51.190;6.808;2023-06-14T08:50:35;101297.81;;;26.66;36.54
62617;BME280;62539;51.190;6.808;2023-06-14T08:53:02;101299.53;;;26.67;36.16
62617;BME280;62539;51.190;6.808;2023-06-14T08:55:29;101291.47;;;26.68;36.37
62617;BME280;62539;51.190;6.808;2023-06-14T08:57:57;101281.66;;;26.69;36.07
62617;BME280;62539;51.190;6.808;2023-06-14T09:00:24;101280.72;;;26.70;36.27
62617;BME280;62539;51.190;6.808;2023-06-14T09:02:52;101293.06;;;26.71;36.29
62617;BME280;62539;51.190;6.808;2023-06-14T09:05:24;101293.94;;;26.71;36.70
62617;BME280;62539;51.190;6.808;2023-06-14T09:07:50;101285.00;;;26.73;36.63
62617;BME280;62539;51.190;6.808;2023-06-14T09:10:16;101292.03;;;26.74;36.38
62617;BME280;62539;51.190;6.808;2023-06-14T09:12:42;101294.59;;;26.75;36.64
62617;BME280;62539;51.190;6.808;2023-06-14T09:15:09;101290.16;;;26.76;36.51
62617;BME280;62539;51.190;6.808;2023-06-14T09:17:35;101288.25;;;26.78;36.84
62617;BME280;62539;51.190;6.808;2023-06-14T09:20:03;101295.28;;;26.79;36.84
62617;BME280;62539;51.190;6.808;2023-06-14T09:22:31;101308.59;;;26.79;36.82
62617;BME280;62539;51.190;6.808;2023-06-14T09:24:58;101297.00;;;26.80;37.00
62617;BME280;62539;51.190;6.808;2023-06-14T09:27:28;101312.00;;;26.81;36.89
62617;BME280;62539;51.190;6.808;2023-06-14T09:29:54;101302.19;;;26.81;36.76
62617;BME280;62539;51.190;6.808;2023-06-14T09:32:23;101294.22;;;26.81;36.65
62617;BME280;62539;51.190;6.808;2023-06-14T09:34:50;101305.72;;;26.82;36.85
62617;BME280;62539;51.190;6.808;2023-06-14T09:37:29;101316.38;;;26.82;36.70
62617;BME280;62539;51.190;6.808;2023-06-14T09:39:56;101306.59;;;26.82;36.90
62617;BME280;62539;51.190;6.808;2023-06-14T09:42:23;101332.28;;;26.83;36.86
62617;BME280;62539;51.190;6.808;2023-06-14T09:44:51;101310.91;;;26.85;37.09
62617;BME280;62539;51.190;6.808;2023-06-14T09:47:19;101324.22;;;26.85;36.77
62617;BME280;62539;51.190;6.808;2023-06-14T09:49:44;101321.56;;;26.85;37.03
62617;BME280;62539;51.190;6.808;2023-06-14T09:52:13;101323.25;;;26.86;36.86
62617;BME280;62539;51.190;6.808;2023-06-14T09:54:44;101322.38;;;26.85;35.96
62617;BME280;62539;51.190;6.808;2023-06-14T09:57:14;101321.56;;;26.85;35.46
62617;BME280;62539;51.190;6.808;2023-06-14T09:59:45;101324.22;;;26.85;34.99
62617;BME280;62539;51.190;6.808;2023-06-14T10:05:08;101323.59;;;26.80;33.58
62617;BME280;62539;51.190;6.808;2023-06-14T10:10:24;101325.50;;;26.78;33.06
62617;BME280;62539;51.190;6.808;2023-06-14T10:12:50;101320.19;;;26.78;32.96
62617;BME280;62539;51.190;6.808;2023-06-14T10:15:28;101312.19;;;26.78;32.59
62617;BME280;62539;51.190;6.808;2023-06-14T10:18:17;101323.78;;;26.77;32.55
62617;BME280;62539;51.190;6.808;2023-06-14T10:21:02;101315.81;;;26.77;32.50
62617;BME280;62539;51.190;6.808;2023-06-14T10:23:37;101315.69;;;26.78;32.13
62617;BME280;62539;51.190;6.808;2023-06-14T10:26:07;101309.53;;;26.78;31.93
62617;BME280;62539;51.190;6.808;2023-06-14T10:28:37;101318.38;;;26.78;32.01
62617;BME280;62539;51.190;6.808;2023-06-14T10:31:08;101305.94;;;26.79;32.15
62617;BME280;62539;51.190;6.808;2023-06-14T10:39:06;101308.59;;;26.79;32.06
62617;BME280;62539;51.190;6.808;2023-06-14T10:41:41;101304.03;;;26.81;32.09
62617;BME280;62539;51.190;6.808;2023-06-14T10:46:49;101313.81;;;26.80;32.08
62617;BME280;62539;51.190;6.808;2023-06-14T10:49:18;101305.72;;;26.82;31.91
62617;BME280;62539;51.190;6.808;2023-06-14T10:51:54;101302.16;;;26.83;31.74
62617;BME280;62539;51.190;6.808;2023-06-14T10:54:23;101303.94;;;26.82;31.82
62617;BME280;62539;51.190;6.808;2023-06-14T10:56:53;101296.84;;;26.83;31.86
62617;BME280;62539;51.190;6.808;2023-06-14T10:59:20;101292.34;;;26.83;31.56
62617;BME280;62539;51.190;6.808;2023-06-14T11:04:50;101302.03;;;26.84;31.93
62617;BME280;62539;51.190;6.808;2023-06-14T11:10:37;101296.66;;;26.86;31.63
62617;BME280;62539;51.190;6.808;2023-06-14T11:13:04;101294.75;;;26.88;31.87
62617;BME280;62539;51.190;6.808;2023-06-14T11:15:30;101303.50;;;26.90;31.97
62617;BME280;62539;51.190;6.808;2023-06-14T11:17:57;101293.59;;;26.92;31.96
62617;BME280;62539;51.190;6.808;2023-06-14T11:20:26;101290.94;;;26.92;31.85
62617;BME280;62539;51.190;6.808;2023-06-14T11:22:53;101291.78;;;26.93;31.51
62617;BME280;62539;51.190;6.808;2023-06-14T11:25:19;101285.63;;;26.92;31.20
62617;BME280;62539;51.190;6.808;2023-06-14T11:27:45;101284.66;;;26.93;31.58
62617;BME280;62539;51.190;6.808;2023-06-14T11:30:12;101286.44;;;26.93;31.39
62617;BME280;62539;51.190;6.808;2023-06-14T11:32:38;101282.84;;;26.94;31.78
62617;BME280;62539;51.190;6.808;2023-06-14T11:35:05;101279.16;;;26.96;31.55
62617;BME280;62539;51.190;6.808;2023-06-14T11:37:32;101282.66;;;26.97;31.42
62617;BME280;62539;51.190;6.808;2023-06-14T11:40:01;101291.41;;;26.99;31.83
62617;BME280;62539;51.190;6.808;2023-06-14T11:42:29;101283.31;;;27.00;31.67
62617;BME280;62539;51.190;6.808;2023-06-14T11:44:55;101285.03;;;27.02;31.94
62617;BME280;62539;51.190;6.808;2023-06-14T11:47:21;101278.75;;;27.03;31.75
62617;BME280;62539;51.190;6.808;2023-06-14T11:49:47;101279.53;;;27.05;32.05
62617;BME280;62539;51.190;6.808;2023-06-14T11:52:13;101265.25;;;27.06;32.00
62617;BME280;62539;51.190;6.808;2023-06-14T11:54:39;101275.72;;;27.09;32.32
62617;BME280;62539;51.190;6.808;2023-06-14T11:57:09;101277.31;;;27.11;32.38
62617;BME280;62539;51.190;6.808;2023-06-14T11:59:39;101264.66;;;27.15;32.58
62617;BME280;62539;51.190;6.808;2023-06-14T12:02:06;101269.81;;;27.18;32.68
62617;BME280;62539;51.190;6.808;2023-06-14T12:04:32;101268.72;;;27.21;32.62
62617;BME280;62539;51.190;6.808;2023-06-14T12:07:11;101276.53;;;27.24;32.80
62617;BME280;62539;51.190;6.808;2023-06-14T12:12:24;101263.69;;;27.31;32.94
62617;BME280;62539;51.190;6.808;2023-06-14T12:14:52;101261.78;;;27.33;33.16
62617;BME280;62539;51.190;6.808;2023-06-14T12:17:20;101262.53;;;27.35;32.94
62617;BME280;62539;51.190;6.808;2023-06-14T12:19:46;101269.47;;;27.37;33.20
62617;BME280;62539;51.190;6.808;2023-06-14T12:22:13;101268.44;;;27.40;33.13
62617;BME280;62539;51.190;6.808;2023-06-14T12:24:39;101266.53;;;27.42;33.05
62617;BME280;62539;51.190;6.808;2023-06-14T12:27:08;101260.13;;;27.44;33.24
62617;BME280;62539;51.190;6.808;2023-06-14T12:29:34;101257.38;;;27.46;33.23
62617;BME280;62539;51.190;6.808;2023-06-14T12:32:01;101264.31;;;27.49;33.52
62617;BME280;62539;51.190;6.808;2023-06-14T12:34:27;101269.56;;;27.50;33.60
62617;BME280;62539;51.190;6.808;2023-06-14T12:36:55;101266.72;;;27.53;33.35
62617;BME280;62539;51.190;6.808;2023-06-14T12:39:22;101265.75;;;27.54;33.76
62617;BME280;62539;51.190;6.808;2023-06-14T12:41:48;101263.84;;;27.56;33.69
62617;BME280;62539;51.190;6.808;2023-06-14T12:44:14;101259.25;;;27.58;33.57
62617;BME280;62539;51.190;6.808;2023-06-14T12:46:41;101260.84;;;27.61;33.61
62617;BME280;62539;51.190;6.808;2023-06-14T12:49:08;101278.47;;;27.64;33.79
62617;BME280;62539;51.190;6.808;2023-06-14T12:51:35;101265.97;;;27.64;33.76
62617;BME280;62539;51.190;6.808;2023-06-14T12:54:00;101260.56;;;27.66;33.81
62617;BME280;62539;51.190;6.808;2023-06-14T12:56:26;101263.13;;;27.67;33.85
62617;BME280;62539;51.190;6.808;2023-06-14T12:58:51;101265.69;;;27.69;33.84
62617;BME280;62539;51.190;6.808;2023-06-14T13:01:17;101264.75;;;27.70;34.04
62617;BME280;62539;51.190;6.808;2023-06-14T13:03:43;101256.63;;;27.71;34.13
62617;BME280;62539;51.190;6.808;2023-06-14T13:06:09;101263.59;;;27.74;34.18
62617;BME280;62539;51.190;6.808;2023-06-14T13:08:34;101260.91;;;27.74;33.84
62617;BME280;62539;51.190;6.808;2023-06-14T13:11:00;101260.81;;;27.76;34.15
62617;BME280;62539;51.190;6.808;2023-06-14T13:13:25;101252.72;;;27.77;34.04
62617;BME280;62539;51.190;6.808;2023-06-14T13:15:51;101250.88;;;27.78;34.25